Ann Arbor, MI (48104)

2:44 PM EDT on August 25, 2016 (GMT -0400)
Kimberley Hills | | Change Station

Elev 880 ft 42.25 °N, 83.72 °W | Updated 1 minute ago

Scattered Clouds
Scattered Clouds
89.8 °F
Feels Like 88 °F
N
3.1
Wind Variable Wind from NW
Gusts 5.4 mph

Today
High -- | Low -- °F
--% Chance of Precip.
Yesterday
High -- | Low -- °F
Precip. -- in
Pressure 29.96 in
Visibility 10.0 miles
Clouds Scattered Clouds 3500 ft
Heat Index 88 °F
Dew Point 57 °F
Humidity 33%
Rainfall 0.00 in
Snow Depth Not available.
6:53 AM 8:19 PM
Last Quarter, 43% visible
METAR KARB 251753Z 24013KT 10SM SCT035 29/21 A2997 RMK AO2 SLP144 T02890211 10294 20217 58004
Pressure 29.96 in
Visibility 10.0 miles
Clouds Scattered Clouds 3500 ft
Heat Index 88 °F
Dew Point 57 °F
Humidity 33%
Rainfall 0.00 in
Snow Depth Not available.
6:53 AM 8:19 PM
Last Quarter, 43% visible
METAR KARB 251753Z 24013KT 10SM SCT035 29/21 A2997 RMK AO2 SLP144 T02890211 10294 20217 58004
A tropical disturbance pushing toward the Bahamas, is expected to develop into a tropical depression or storm, and will likely target Florida and the Gulf Coast this weekend into next week.

Right now, the disturbance remains a broad area of low pressure pushing through the Dominican Republic and Haiti, headed toward the southeast Bahamas. Rainfall totals over 3 inches (with locally higher amounts) are expected in HispaƱiola, particularly over elevated terrain.

10-Day Weather Forecast

Almanac

Astronomy

Aug. 25, 2016 Rise Set
Actual Time
Civil Twilight
Nautical Twilight
Astronomical Twilight
Moon
Length of Visible Light
Length of Day
Tomorrow will be .
, % of the Moon is Illuminated

Today's Extremes

State Highs State Lows

Community

WunderPhotos

Upload Photos

1,934,890 photos uploaded!

WunderBlog® & News

Nearby

Air Quality

  Air Quality AQ Index Pollutant
Not available.

Snow Depth

Station Depth Elevation

Earthquake Activity

City Distance Mag. Time & Date
Minimum magnitude displayed is 2.5.

Coastal Water Temperatures

Place Temperature

Stations

Nearby Weather Stations

Station Location Temp. Windchill Dew Point Humidity Wind Precip. Elev Updated Type
                   

Watches & Warnings

There are currently no watches in effect.